createdAt,value
2023-04-18T00:01:08.033Z,9.10
2023-04-18T00:03:38.045Z,9.13
2023-04-18T00:06:06.888Z,8.43
2023-04-18T00:08:36.518Z,8.70
2023-04-18T00:11:05.033Z,7.87
2023-04-18T00:13:33.404Z,10.10
2023-04-18T00:16:02.485Z,8.90
2023-04-18T00:18:31.058Z,8.67
2023-04-18T00:20:59.946Z,8.50
2023-04-18T00:23:30.205Z,8.83
2023-04-18T00:26:00.637Z,8.13
2023-04-18T00:28:29.225Z,9.33
2023-04-18T00:30:58.060Z,8.87
2023-04-18T00:33:26.303Z,8.73
2023-04-18T00:35:55.192Z,8.70
2023-04-18T00:38:23.696Z,8.90
2023-04-18T00:40:52.285Z,8.53
2023-04-18T00:43:24.715Z,10.00
2023-04-18T00:45:53.396Z,8.87
2023-04-18T00:48:22.030Z,9.63
2023-04-18T00:50:50.795Z,8.57
2023-04-18T00:53:19.029Z,9.93
2023-04-18T00:55:48.183Z,9.77
2023-04-18T00:58:17.551Z,9.67
2023-04-18T01:00:47.948Z,9.57
2023-04-18T01:03:18.377Z,10.10
2023-04-18T01:05:48.025Z,10.03
2023-04-18T01:08:16.597Z,10.10
2023-04-18T01:10:45.157Z,9.70
2023-04-18T01:13:15.261Z,9.70
2023-04-18T01:15:44.868Z,10.10
2023-04-18T01:18:16.798Z,9.40
2023-04-18T01:20:47.778Z,10.20
2023-04-18T01:23:16.929Z,10.00
2023-04-18T01:25:49.214Z,10.47
2023-04-18T01:28:21.258Z,9.63
2023-04-18T01:30:50.469Z,10.10
2023-04-18T01:33:18.673Z,10.30
2023-04-18T01:35:49.865Z,11.13
2023-04-18T01:38:18.224Z,9.27
2023-04-18T01:40:48.672Z,10.53
2023-04-18T01:43:16.982Z,10.13
2023-04-18T01:45:45.791Z,10.80
2023-04-18T01:48:14.351Z,10.37
2023-04-18T01:50:43.897Z,10.97
2023-04-18T01:53:12.294Z,10.90
2023-04-18T01:55:40.936Z,11.03
2023-04-18T01:58:10.748Z,11.20
2023-04-18T02:00:39.145Z,10.83
2023-04-18T02:03:07.495Z,10.93
2023-04-18T02:05:37.438Z,12.83
2023-04-18T02:08:07.272Z,10.87
2023-04-18T02:10:35.736Z,11.30
2023-04-18T02:13:04.050Z,11.47
2023-04-18T02:15:34.280Z,11.77
2023-04-18T02:18:02.976Z,11.33
2023-04-18T02:20:33.503Z,11.50
2023-04-18T02:23:03.674Z,11.37
2023-04-18T02:25:32.117Z,11.37
2023-04-18T02:28:00.800Z,12.03
2023-04-18T02:30:34.193Z,10.43
2023-04-18T02:33:04.804Z,11.20
2023-04-18T02:35:33.406Z,11.33
2023-04-18T02:38:01.773Z,11.17
2023-04-18T02:40:30.300Z,12.47
2023-04-18T02:43:02.089Z,12.03
2023-04-18T02:45:31.123Z,11.67
2023-04-18T02:48:02.997Z,11.53
2023-04-18T02:50:32.854Z,11.07
2023-04-18T02:53:01.612Z,12.27
2023-04-18T02:55:44.412Z,11.73
2023-04-18T02:58:12.834Z,11.13
2023-04-18T03:00:41.439Z,11.97
2023-04-18T03:03:29.587Z,10.53
2023-04-18T03:06:21.488Z,11.77
2023-04-18T03:08:49.786Z,11.40
2023-04-18T03:11:18.625Z,11.33
2023-04-18T03:13:47.217Z,11.47
2023-04-18T03:16:17.043Z,11.40
2023-04-18T03:18:47.035Z,10.90
2023-04-18T03:21:15.814Z,12.40
2023-04-18T03:23:44.275Z,10.50
2023-04-18T03:26:13.875Z,11.60
2023-04-18T03:28:44.001Z,12.23
2023-04-18T03:31:12.781Z,10.73
2023-04-18T03:33:45.568Z,10.83
2023-04-18T03:36:18.300Z,11.60
2023-04-18T03:38:47.047Z,11.23
2023-04-18T03:41:15.808Z,11.20
2023-04-18T03:43:44.290Z,11.80
2023-04-18T03:46:13.641Z,10.70
2023-04-18T03:48:42.142Z,11.43
2023-04-18T03:51:14.883Z,11.00
2023-04-18T03:53:43.320Z,10.63
2023-04-18T03:56:11.957Z,11.37
2023-04-18T03:58:48.571Z,12.30
2023-04-18T04:01:17.759Z,11.67
2023-04-18T04:03:46.503Z,11.77
2023-04-18T04:06:18.370Z,11.23
2023-04-18T04:08:46.739Z,11.70
2023-04-18T04:11:19.063Z,11.10
2023-04-18T04:13:47.398Z,11.70
2023-04-18T04:16:18.784Z,14.27
2023-04-18T04:18:49.510Z,13.30
2023-04-18T04:21:24.011Z,12.13
2023-04-18T04:23:54.503Z,12.47
2023-04-18T04:26:31.768Z,13.90
2023-04-18T04:29:10.063Z,11.43
2023-04-18T04:31:40.510Z,12.03
2023-04-18T04:34:09.695Z,14.57
2023-04-18T04:36:41.216Z,12.70
2023-04-18T04:39:11.567Z,13.90
2023-04-18T04:42:04.450Z,14.77
2023-04-18T04:44:42.869Z,13.10
2023-04-18T04:47:12.228Z,11.93
2023-04-18T04:49:41.264Z,13.97
2023-04-18T04:52:11.199Z,11.80
2023-04-18T04:54:40.044Z,11.67
2023-04-18T04:57:11.254Z,12.73
2023-04-18T04:59:39.918Z,11.70
2023-04-18T05:02:08.658Z,11.77
2023-04-18T05:04:37.753Z,11.47
2023-04-18T05:07:07.169Z,11.77
2023-04-18T05:09:36.795Z,11.37
2023-04-18T05:12:05.891Z,12.17
2023-04-18T05:14:34.194Z,11.87
2023-04-18T05:17:04.146Z,12.07
2023-04-18T05:19:32.460Z,11.43
2023-04-18T05:22:01.304Z,11.37
2023-04-18T05:24:29.846Z,11.47
2023-04-18T05:26:59.745Z,11.00
2023-04-18T05:29:27.850Z,10.53
2023-04-18T05:31:56.767Z,10.93
2023-04-18T05:34:24.854Z,10.60
2023-04-18T05:36:53.539Z,12.10
2023-04-18T05:39:21.651Z,11.37
2023-04-18T05:41:50.376Z,11.33
2023-04-18T05:44:20.145Z,12.73
2023-04-18T05:46:51.364Z,11.80
2023-04-18T05:49:19.686Z,10.93
2023-04-18T05:51:49.733Z,12.27
2023-04-18T05:54:18.337Z,10.83
2023-04-18T05:56:46.978Z,12.07
2023-04-18T05:59:15.349Z,11.27
2023-04-18T06:01:45.347Z,11.83
2023-04-18T06:04:14.177Z,10.63
2023-04-18T06:06:43.377Z,11.10
2023-04-18T06:09:11.589Z,11.37
2023-04-18T06:11:40.469Z,11.57
2023-04-18T06:14:08.782Z,11.47
2023-04-18T06:16:38.063Z,12.33
2023-04-18T06:19:08.023Z,11.37
2023-04-18T06:21:36.851Z,12.20
2023-04-18T06:24:05.994Z,12.00
2023-04-18T06:26:34.712Z,11.87
2023-04-18T06:29:03.293Z,11.80
2023-04-18T06:31:31.773Z,11.67
2023-04-18T06:33:59.996Z,12.57
2023-04-18T06:36:30.037Z,10.50
2023-04-18T06:38:58.278Z,12.10
2023-04-18T06:41:27.014Z,11.27
2023-04-18T06:44:03.831Z,11.10
2023-04-18T06:46:33.221Z,11.97
2023-04-18T06:49:01.620Z,11.47
2023-04-18T06:51:31.563Z,10.83
2023-04-18T06:53:59.957Z,11.67
2023-04-18T06:56:29.594Z,11.73
2023-04-18T06:58:58.058Z,12.17
2023-04-18T07:01:26.602Z,11.87
2023-04-18T07:03:54.921Z,12.10
2023-04-18T07:06:23.380Z,10.97
2023-04-18T07:08:55.916Z,11.90
2023-04-18T07:11:24.548Z,11.37
2023-04-18T07:13:52.836Z,10.90
2023-04-18T07:16:21.817Z,11.57
2023-04-18T07:18:51.603Z,11.67
2023-04-18T07:21:20.826Z,12.03
2023-04-18T07:23:49.000Z,11.93
2023-04-18T07:26:19.023Z,12.03
2023-04-18T07:28:47.390Z,11.80
2023-04-18T07:31:16.547Z,15.30
2023-04-18T07:33:45.167Z,14.63
2023-04-18T07:36:13.896Z,11.10
2023-04-18T07:38:42.573Z,11.90
2023-04-18T07:41:11.269Z,11.03
2023-04-18T07:43:40.767Z,11.20
2023-04-18T07:46:09.630Z,11.27
2023-04-18T07:48:37.989Z,11.90
2023-04-18T07:51:06.671Z,10.83
2023-04-18T07:53:34.973Z,11.27
2023-04-18T07:56:03.394Z,11.33
2023-04-18T07:58:31.670Z,11.90
2023-04-18T08:01:01.723Z,10.50
2023-04-18T08:03:30.318Z,11.20
2023-04-18T08:05:59.001Z,10.90
2023-04-18T08:08:27.149Z,11.60
2023-04-18T08:10:55.802Z,12.67
2023-04-18T08:13:24.305Z,12.30
2023-04-18T08:15:53.343Z,10.90
2023-04-18T08:18:23.871Z,11.30
2023-04-18T08:20:52.536Z,11.67
2023-04-18T08:23:20.686Z,11.60
2023-04-18T08:25:49.200Z,12.37
2023-04-18T08:28:17.465Z,11.13
2023-04-18T08:30:48.749Z,10.33
2023-04-18T08:33:17.077Z,10.97
2023-04-18T08:35:46.967Z,10.90
2023-04-18T08:38:17.170Z,11.10
2023-04-18T08:40:46.544Z,11.75
2023-04-18T08:43:15.879Z,10.77
2023-04-18T08:45:46.104Z,11.97
2023-04-18T08:48:14.951Z,9.95
2023-04-18T08:50:43.714Z,11.70
2023-04-18T08:53:13.412Z,9.32
2023-04-18T08:55:42.021Z,9.70
2023-04-18T08:58:12.690Z,9.73
2023-04-18T09:00:41.658Z,9.48
2023-04-18T09:03:15.563Z,10.45
2023-04-18T09:05:46.870Z,9.65
2023-04-18T09:08:25.824Z,9.82
2023-04-18T09:10:54.358Z,10.52
2023-04-18T09:13:41.071Z,10.80
2023-04-18T09:16:09.646Z,11.30
2023-04-18T09:18:38.306Z,10.88
2023-04-18T09:21:19.384Z,10.43
2023-04-18T09:23:50.365Z,11.40
2023-04-18T09:26:33.359Z,10.20
2023-04-18T09:29:03.250Z,9.32
2023-04-18T09:31:31.879Z,9.90
2023-04-18T09:34:02.095Z,9.00
2023-04-18T09:36:31.398Z,9.85
2023-04-18T09:39:02.045Z,10.05
2023-04-18T09:41:32.657Z,10.98
2023-04-18T09:44:14.490Z,11.73
2023-04-18T09:46:46.849Z,11.05
2023-04-18T09:49:16.707Z,10.35
2023-04-18T09:51:46.309Z,10.40
2023-04-18T09:54:17.636Z,10.63
2023-04-18T09:56:47.581Z,11.07
2023-04-18T09:59:21.312Z,10.68
2023-04-18T10:01:51.777Z,10.43
2023-04-18T10:04:20.444Z,10.63
2023-04-18T10:06:49.416Z,10.60
2023-04-18T10:09:19.337Z,10.77
2023-04-18T10:11:48.125Z,11.43
2023-04-18T10:14:18.137Z,11.88
2023-04-18T10:16:48.655Z,11.18
2023-04-18T10:19:24.281Z,11.20
2023-04-18T10:21:54.273Z,10.10
2023-04-18T10:24:49.521Z,10.52
2023-04-18T10:27:18.974Z,10.65
2023-04-18T10:29:51.234Z,11.05
2023-04-18T10:32:20.610Z,11.30
2023-04-18T10:34:49.854Z,11.15
2023-04-18T10:37:18.944Z,11.23
2023-04-18T10:39:57.250Z,10.73
2023-04-18T10:42:58.979Z,11.23
2023-04-18T10:45:28.823Z,11.50
2023-04-18T10:48:23.015Z,10.73
2023-04-18T10:51:14.225Z,10.07
2023-04-18T10:53:49.782Z,10.82
2023-04-18T10:56:19.508Z,10.45
2023-04-18T10:58:52.319Z,11.80
2023-04-18T11:01:30.322Z,12.30
2023-04-18T11:04:01.618Z,10.07
2023-04-18T11:06:31.341Z,13.85
2023-04-18T11:09:12.506Z,10.57
2023-04-18T11:11:42.461Z,11.63
2023-04-18T11:14:12.157Z,11.48
2023-04-18T11:16:41.374Z,11.05
2023-04-18T11:19:20.952Z,9.95
2023-04-18T11:21:49.275Z,10.05
2023-04-18T11:24:24.696Z,10.45
2023-04-18T11:26:56.176Z,11.35
2023-04-18T11:29:25.054Z,10.55
2023-04-18T11:31:56.842Z,10.65
2023-04-18T11:34:31.348Z,9.95
2023-04-18T11:36:59.663Z,9.52
2023-04-18T11:39:28.370Z,10.30
2023-04-18T11:42:01.366Z,9.95
2023-04-18T11:44:30.028Z,10.20
2023-04-18T11:46:58.509Z,10.15
2023-04-18T11:49:28.850Z,9.65
2023-04-18T11:51:57.458Z,9.48
2023-04-18T11:54:40.029Z,10.40
2023-04-18T11:57:21.288Z,10.88
2023-04-18T11:59:51.520Z,10.48
2023-04-18T12:02:21.145Z,11.07
2023-04-18T12:04:54.641Z,9.90
2023-04-18T12:07:37.763Z,10.82
2023-04-18T12:10:08.837Z,10.38
2023-04-18T12:12:38.514Z,9.93
2023-04-18T12:15:10.093Z,10.10
2023-04-18T12:17:39.118Z,9.70
2023-04-18T12:20:09.987Z,10.93
2023-04-18T12:22:43.926Z,9.43
2023-04-18T12:25:27.874Z,10.32
2023-04-18T12:28:01.615Z,10.23
2023-04-18T12:30:31.763Z,10.18
2023-04-18T12:33:02.083Z,10.68
2023-04-18T12:35:32.394Z,9.65
2023-04-18T12:38:02.346Z,9.93
2023-04-18T12:40:31.592Z,9.95
2023-04-18T12:43:03.409Z,10.48
2023-04-18T12:45:32.859Z,9.82
2023-04-18T12:48:01.280Z,9.95
2023-04-18T12:50:30.037Z,9.20
2023-04-18T12:53:01.110Z,10.10
2023-04-18T12:55:29.904Z,8.77
2023-04-18T12:57:58.838Z,9.25
2023-04-18T13:00:31.180Z,8.73
2023-04-18T13:03:00.843Z,9.25
2023-04-18T13:05:33.506Z,9.60
2023-04-18T13:10:34.088Z,8.40
2023-04-18T13:13:02.253Z,8.10
2023-04-18T13:15:32.194Z,7.78
2023-04-18T13:18:04.568Z,8.93
2023-04-18T13:20:33.785Z,8.48
2023-04-18T13:23:03.832Z,7.97
2023-04-18T13:25:32.704Z,8.52
2023-04-18T13:28:01.238Z,8.45
2023-04-18T13:30:31.985Z,8.60
2023-04-18T13:33:00.390Z,7.97
2023-04-18T13:35:29.243Z,7.68
2023-04-18T13:37:57.325Z,8.13
2023-04-18T13:40:26.460Z,7.70
2023-04-18T13:42:54.695Z,7.03
2023-04-18T13:45:23.250Z,8.55
2023-04-18T13:47:52.779Z,8.60
2023-04-18T13:50:21.413Z,7.57
2023-04-18T13:52:51.871Z,8.30
2023-04-18T13:55:21.057Z,7.90
2023-04-18T13:57:49.381Z,7.40
2023-04-18T14:00:19.465Z,8.57
2023-04-18T14:02:47.806Z,8.55
2023-04-18T14:05:17.890Z,7.72
2023-04-18T14:07:46.250Z,7.90
2023-04-18T14:10:14.889Z,7.63
2023-04-18T14:12:43.294Z,7.38
2023-04-18T14:15:12.541Z,8.02
2023-04-18T14:17:42.245Z,7.47
2023-04-18T14:20:15.497Z,6.80
2023-04-18T14:22:45.100Z,8.45
2023-04-18T14:25:14.275Z,8.73
2023-04-18T14:27:42.508Z,7.82
2023-04-18T14:30:12.362Z,9.02
2023-04-18T14:32:40.602Z,8.30
2023-04-18T14:35:11.061Z,8.85
2023-04-18T14:37:39.390Z,9.55
2023-04-18T14:40:12.332Z,8.60
2023-04-18T14:42:40.565Z,7.95
2023-04-18T14:45:11.251Z,8.32
2023-04-18T14:47:40.070Z,8.10
2023-04-18T14:50:11.779Z,8.45
2023-04-18T14:52:40.260Z,8.30
2023-04-18T14:55:11.205Z,8.35
2023-04-18T14:57:39.891Z,10.10
2023-04-18T15:00:11.127Z,9.45
2023-04-18T15:02:40.334Z,9.25
2023-04-18T15:05:09.938Z,9.23
2023-04-18T15:07:38.356Z,7.88
2023-04-18T15:10:08.444Z,8.48
2023-04-18T15:12:37.866Z,8.55
2023-04-18T15:15:07.535Z,8.98
2023-04-18T15:17:35.910Z,7.85
2023-04-18T15:20:07.049Z,7.53
2023-04-18T15:22:35.589Z,8.25
2023-04-18T15:25:05.102Z,8.38
2023-04-18T15:27:33.311Z,8.07
2023-04-18T15:30:03.719Z,7.22
2023-04-18T15:32:32.685Z,7.38
2023-04-18T15:35:01.313Z,8.75
2023-04-18T15:37:29.710Z,7.85
2023-04-18T15:39:58.308Z,8.57
2023-04-18T15:42:26.650Z,8.00
2023-04-18T15:44:55.077Z,8.15
2023-04-18T15:47:24.784Z,8.90
2023-04-18T15:49:53.389Z,8.63
2023-04-18T15:52:21.960Z,8.48
2023-04-18T15:54:51.844Z,7.78
2023-04-18T15:57:21.057Z,8.63
2023-04-18T15:59:49.622Z,8.20
2023-04-18T16:02:17.903Z,9.88
2023-04-18T16:04:47.860Z,8.63
2023-04-18T16:07:16.867Z,10.48
2023-04-18T16:09:45.470Z,8.13
2023-04-18T16:12:13.847Z,8.65
2023-04-18T16:14:42.491Z,8.57
2023-04-18T16:17:11.084Z,7.50
2023-04-18T16:19:40.899Z,7.55
2023-04-18T16:22:12.127Z,10.10
2023-04-18T16:24:42.247Z,15.35
2023-04-18T16:27:10.545Z,10.90
2023-04-18T16:29:39.091Z,9.90
2023-04-18T16:32:08.338Z,9.45
2023-04-18T16:34:36.983Z,8.68
2023-04-18T16:37:05.498Z,8.55
2023-04-18T16:39:35.367Z,8.95
2023-04-18T16:42:03.845Z,9.10
2023-04-18T16:44:33.147Z,8.55
2023-04-18T16:47:01.608Z,8.45
2023-04-18T16:49:30.298Z,8.48
2023-04-18T16:51:58.547Z,8.15
2023-04-18T16:54:27.278Z,9.15
2023-04-18T16:56:57.042Z,8.55
2023-04-18T16:59:26.020Z,8.43
2023-04-18T17:01:54.725Z,8.07
2023-04-18T17:04:26.865Z,8.52
2023-04-18T17:06:55.302Z,9.10
2023-04-18T17:09:24.071Z,8.57
2023-04-18T17:11:52.326Z,7.18
2023-04-18T17:14:22.470Z,8.57
2023-04-18T17:16:53.321Z,8.73
2023-04-18T17:19:22.437Z,9.43
2023-04-18T17:21:51.151Z,8.43
2023-04-18T17:24:22.373Z,8.48
2023-04-18T17:26:51.030Z,7.85
2023-04-18T17:29:19.584Z,8.90
2023-04-18T17:31:49.235Z,8.23
2023-04-18T17:34:18.038Z,8.05
2023-04-18T17:36:46.642Z,8.27
2023-04-18T17:39:16.840Z,8.38
2023-04-18T17:41:46.894Z,7.90
2023-04-18T17:44:15.590Z,8.38
2023-04-18T17:46:43.930Z,7.60
2023-04-18T17:49:14.067Z,7.75
2023-04-18T17:51:42.497Z,8.63
2023-04-18T17:54:13.321Z,7.93
2023-04-18T17:56:41.601Z,8.23
2023-04-18T17:59:10.945Z,8.07
2023-04-18T18:01:39.182Z,8.32
2023-04-18T18:04:07.945Z,7.38
2023-04-18T18:06:37.965Z,8.75
2023-04-18T18:09:07.282Z,8.02
2023-04-18T18:11:36.038Z,7.85
2023-04-18T18:14:05.022Z,7.60
2023-04-18T18:16:33.485Z,7.85
2023-04-18T18:19:02.153Z,7.70
2023-04-18T18:21:30.464Z,9.65
2023-04-18T18:24:00.419Z,13.77
2023-04-18T18:26:28.794Z,7.47
2023-04-18T18:28:57.359Z,7.80
2023-04-18T18:31:26.242Z,8.02
2023-04-18T18:33:54.830Z,8.25
2023-04-18T18:36:23.198Z,8.02
2023-04-18T18:38:51.702Z,8.32
2023-04-18T18:41:22.567Z,9.02
2023-04-18T18:43:51.682Z,9.27
2023-04-18T18:46:20.516Z,11.40
2023-04-18T18:48:49.813Z,9.02
2023-04-18T18:51:19.408Z,8.50
2023-04-18T18:53:48.061Z,8.45
2023-04-18T18:56:16.453Z,7.75
2023-04-18T18:58:46.814Z,9.43
2023-04-18T19:01:15.478Z,8.38
2023-04-18T19:03:44.127Z,8.10
2023-04-18T19:06:12.646Z,7.95
2023-04-18T19:08:41.323Z,8.50
2023-04-18T19:11:10.318Z,8.27
2023-04-18T19:13:39.016Z,7.65
2023-04-18T19:16:08.992Z,8.90
2023-04-18T19:18:37.550Z,9.52
2023-04-18T19:21:06.211Z,8.68
2023-04-18T19:23:35.912Z,8.48
2023-04-18T19:26:04.324Z,9.10
2023-04-18T19:28:33.152Z,9.45
2023-04-18T19:31:01.858Z,8.63
2023-04-18T19:33:32.002Z,9.98
2023-04-18T19:36:00.310Z,9.68
2023-04-18T19:38:29.175Z,10.05
2023-04-18T19:40:57.675Z,9.32
2023-04-18T19:43:26.623Z,10.00
2023-04-18T19:45:55.371Z,10.07
2023-04-18T19:48:24.046Z,9.88
2023-04-18T19:50:53.486Z,10.25
2023-04-18T19:53:23.441Z,9.55
2023-04-18T19:55:51.676Z,9.10
2023-04-18T19:58:36.478Z,10.00
2023-04-18T20:01:06.071Z,10.00
2023-04-18T20:03:34.932Z,9.98
2023-04-18T20:06:05.509Z,9.18
2023-04-18T20:08:35.773Z,9.45
2023-04-18T20:11:04.428Z,10.38
2023-04-18T20:13:32.901Z,9.52
2023-04-18T20:16:01.253Z,9.38
2023-04-18T20:18:32.014Z,9.02
2023-04-18T20:21:00.250Z,8.32
2023-04-18T20:23:30.262Z,9.68
2023-04-18T20:25:58.585Z,9.15
2023-04-18T20:28:27.133Z,8.73
2023-04-18T20:30:55.499Z,8.52
2023-04-18T20:33:24.258Z,8.48
2023-04-18T20:35:53.763Z,8.57
2023-04-18T20:38:25.996Z,7.82
2023-04-18T20:40:57.950Z,8.77
2023-04-18T20:43:26.807Z,8.05
2023-04-18T20:45:57.766Z,8.45
2023-04-18T20:48:26.329Z,7.68
2023-04-18T20:50:54.521Z,8.00
2023-04-18T20:53:26.002Z,7.90
2023-04-18T20:55:55.821Z,8.95
2023-04-18T20:58:24.520Z,8.10
2023-04-18T21:00:53.364Z,7.95
2023-04-18T21:03:22.056Z,7.82
2023-04-18T21:05:50.443Z,8.57
2023-04-18T21:08:19.291Z,8.73
2023-04-18T21:10:47.497Z,7.93
2023-04-18T21:13:17.504Z,9.30
2023-04-18T21:15:45.762Z,9.47
2023-04-18T21:18:14.366Z,8.80
2023-04-18T21:20:42.572Z,8.20
2023-04-18T21:23:11.134Z,7.93
2023-04-18T21:25:39.440Z,9.10
2023-04-18T21:28:08.905Z,8.77
2023-04-18T21:30:38.624Z,10.17
2023-04-18T21:33:07.108Z,9.73
2023-04-18T21:35:35.298Z,9.37
2023-04-18T21:38:03.797Z,9.70
2023-04-18T21:40:33.315Z,9.47
2023-04-18T21:43:02.108Z,9.03
2023-04-18T21:45:30.588Z,8.90
2023-04-18T21:48:00.747Z,9.87
2023-04-18T21:50:28.887Z,10.27
2023-04-18T21:52:57.523Z,8.70
2023-04-18T21:55:25.787Z,9.20
2023-04-18T21:57:55.131Z,9.00
2023-04-18T22:00:23.698Z,9.40
2023-04-18T22:02:52.492Z,8.67
2023-04-18T22:05:22.458Z,8.30
2023-04-18T22:07:58.035Z,8.67
2023-04-18T22:10:26.831Z,9.43
2023-04-18T22:12:55.968Z,9.50
2023-04-18T22:15:26.856Z,9.77
2023-04-18T22:17:56.052Z,9.87
2023-04-18T22:20:26.900Z,9.80
2023-04-18T22:22:55.542Z,9.77
2023-04-18T22:25:23.887Z,9.87
2023-04-18T22:27:52.308Z,8.20
2023-04-18T22:30:20.781Z,8.73
2023-04-18T22:32:49.567Z,8.57
2023-04-18T22:35:18.150Z,7.67
2023-04-18T22:37:48.161Z,7.70
2023-04-18T22:40:16.834Z,6.93
2023-04-18T22:42:45.391Z,6.83
2023-04-18T22:45:13.779Z,7.00
2023-04-18T22:47:42.308Z,6.80
2023-04-18T22:50:11.270Z,7.13
2023-04-18T22:52:39.717Z,7.47
2023-04-18T22:55:10.383Z,6.83
2023-04-18T22:57:39.698Z,6.63
2023-04-18T23:00:11.072Z,7.07
2023-04-18T23:02:39.997Z,7.13
2023-04-18T23:05:10.862Z,6.67
2023-04-18T23:07:39.328Z,6.80
2023-04-18T23:10:10.891Z,6.33
2023-04-18T23:12:39.426Z,6.87
2023-04-18T23:15:08.857Z,7.00
2023-04-18T23:17:37.429Z,6.37
2023-04-18T23:20:07.690Z,6.23
2023-04-18T23:22:36.236Z,6.70
2023-04-18T23:25:04.830Z,6.57
2023-04-18T23:27:34.650Z,5.57
2023-04-18T23:30:02.880Z,6.53
2023-04-18T23:32:31.358Z,7.37
2023-04-18T23:35:04.059Z,7.50
2023-04-18T23:37:32.854Z,6.57
2023-04-18T23:40:01.355Z,7.43
2023-04-18T23:42:29.845Z,7.17
2023-04-18T23:44:59.468Z,5.90
2023-04-18T23:47:28.084Z,6.37
2023-04-18T23:49:56.534Z,6.13
2023-04-18T23:52:25.178Z,5.43
2023-04-18T23:54:53.367Z,6.33
2023-04-18T23:57:22.018Z,5.30
2023-04-18T23:59:50.315Z,5.50
